sensor_id;sensor_type;location;lat;lon;timestamp;P1;durP1;ratioP1;P2;durP2;ratioP2
68690;SDS011;55675;49.588;8.640;2023-04-16T00:00:49;6.47;;;4.90;;
68690;SDS011;55675;49.588;8.640;2023-04-16T00:03:15;4.97;;;4.47;;
68690;SDS011;55675;49.588;8.640;2023-04-16T00:05:40;6.53;;;4.87;;
68690;SDS011;55675;49.588;8.640;2023-04-16T00:08:06;5.53;;;4.53;;
68690;SDS011;55675;49.588;8.640;2023-04-16T00:10:33;5.60;;;4.37;;
68690;SDS011;55675;49.588;8.640;2023-04-16T00:12:59;7.10;;;5.03;;
68690;SDS011;55675;49.588;8.640;2023-04-16T00:15:24;6.10;;;4.93;;
68690;SDS011;55675;49.588;8.640;2023-04-16T00:17:50;5.83;;;4.87;;
68690;SDS011;55675;49.588;8.640;2023-04-16T00:20:15;7.93;;;5.43;;
68690;SDS011;55675;49.588;8.640;2023-04-16T00:22:41;6.63;;;5.00;;
68690;SDS011;55675;49.588;8.640;2023-04-16T00:25:07;7.17;;;5.57;;
68690;SDS011;55675;49.588;8.640;2023-04-16T00:27:32;6.43;;;4.90;;
68690;SDS011;55675;49.588;8.640;2023-04-16T00:29:59;6.17;;;4.73;;
68690;SDS011;55675;49.588;8.640;2023-04-16T00:32:25;6.20;;;4.60;;
68690;SDS011;55675;49.588;8.640;2023-04-16T00:34:50;5.50;;;5.00;;
68690;SDS011;55675;49.588;8.640;2023-04-16T00:37:16;6.43;;;5.10;;
68690;SDS011;55675;49.588;8.640;2023-04-16T00:39:41;6.90;;;5.10;;
68690;SDS011;55675;49.588;8.640;2023-04-16T00:42:07;6.60;;;4.73;;
68690;SDS011;55675;49.588;8.640;2023-04-16T00:44:32;7.80;;;5.13;;
68690;SDS011;55675;49.588;8.640;2023-04-16T00:47:01;6.43;;;5.40;;
68690;SDS011;55675;49.588;8.640;2023-04-16T00:49:27;6.27;;;5.30;;
68690;SDS011;55675;49.588;8.640;2023-04-16T00:51:53;7.77;;;5.60;;
68690;SDS011;55675;49.588;8.640;2023-04-16T00:54:19;7.27;;;5.60;;
68690;SDS011;55675;49.588;8.640;2023-04-16T00:56:45;8.50;;;5.60;;
68690;SDS011;55675;49.588;8.640;2023-04-16T00:59:11;6.63;;;5.10;;
68690;SDS011;55675;49.588;8.640;2023-04-16T01:01:36;7.23;;;5.60;;
68690;SDS011;55675;49.588;8.640;2023-04-16T01:04:02;7.50;;;5.50;;
68690;SDS011;55675;49.588;8.640;2023-04-16T01:06:28;7.07;;;5.40;;
68690;SDS011;55675;49.588;8.640;2023-04-16T01:08:53;8.20;;;6.00;;
68690;SDS011;55675;49.588;8.640;2023-04-16T01:11:19;7.27;;;5.50;;
68690;SDS011;55675;49.588;8.640;2023-04-16T01:13:45;7.07;;;5.80;;
68690;SDS011;55675;49.588;8.640;2023-04-16T01:16:10;9.93;;;5.73;;
68690;SDS011;55675;49.588;8.640;2023-04-16T01:18:36;6.80;;;5.87;;
68690;SDS011;55675;49.588;8.640;2023-04-16T01:21:02;7.37;;;5.87;;
68690;SDS011;55675;49.588;8.640;2023-04-16T01:23:28;7.93;;;5.70;;
68690;SDS011;55675;49.588;8.640;2023-04-16T01:25:54;7.57;;;6.67;;
68690;SDS011;55675;49.588;8.640;2023-04-16T01:28:20;9.23;;;6.27;;
68690;SDS011;55675;49.588;8.640;2023-04-16T01:30:46;7.70;;;6.20;;
68690;SDS011;55675;49.588;8.640;2023-04-16T01:33:11;9.93;;;6.10;;
68690;SDS011;55675;49.588;8.640;2023-04-16T01:35:38;7.93;;;5.60;;
68690;SDS011;55675;49.588;8.640;2023-04-16T01:38:05;8.90;;;5.97;;
68690;SDS011;55675;49.588;8.640;2023-04-16T01:40:32;6.37;;;5.70;;
68690;SDS011;55675;49.588;8.640;2023-04-16T01:42:58;8.13;;;6.73;;
68690;SDS011;55675;49.588;8.640;2023-04-16T01:45:24;8.83;;;5.53;;
68690;SDS011;55675;49.588;8.640;2023-04-16T01:47:49;9.33;;;6.50;;
68690;SDS011;55675;49.588;8.640;2023-04-16T01:50:16;9.30;;;5.87;;
68690;SDS011;55675;49.588;8.640;2023-04-16T01:52:42;7.80;;;5.97;;
68690;SDS011;55675;49.588;8.640;2023-04-16T01:55:08;8.10;;;6.20;;
68690;SDS011;55675;49.588;8.640;2023-04-16T01:57:34;8.17;;;6.07;;
68690;SDS011;55675;49.588;8.640;2023-04-16T01:59:59;7.33;;;6.00;;
68690;SDS011;55675;49.588;8.640;2023-04-16T02:02:25;9.70;;;6.83;;
68690;SDS011;55675;49.588;8.640;2023-04-16T02:04:53;8.23;;;6.33;;
68690;SDS011;55675;49.588;8.640;2023-04-16T02:07:19;7.63;;;5.73;;
68690;SDS011;55675;49.588;8.640;2023-04-16T02:09:44;8.07;;;5.77;;
68690;SDS011;55675;49.588;8.640;2023-04-16T02:12:10;10.93;;;6.67;;
68690;SDS011;55675;49.588;8.640;2023-04-16T02:14:35;7.03;;;6.10;;
68690;SDS011;55675;49.588;8.640;2023-04-16T02:17:01;8.67;;;6.23;;
68690;SDS011;55675;49.588;8.640;2023-04-16T02:19:27;8.13;;;6.30;;
68690;SDS011;55675;49.588;8.640;2023-04-16T02:21:53;9.33;;;6.30;;
68690;SDS011;55675;49.588;8.640;2023-04-16T02:24:19;8.13;;;6.37;;
68690;SDS011;55675;49.588;8.640;2023-04-16T02:26:45;8.70;;;5.80;;
68690;SDS011;55675;49.588;8.640;2023-04-16T02:29:10;9.47;;;6.73;;
68690;SDS011;55675;49.588;8.640;2023-04-16T02:31:36;8.60;;;6.80;;
68690;SDS011;55675;49.588;8.640;2023-04-16T02:34:02;8.30;;;6.63;;
68690;SDS011;55675;49.588;8.640;2023-04-16T02:36:28;11.30;;;6.60;;
68690;SDS011;55675;49.588;8.640;2023-04-16T02:38:54;9.10;;;6.47;;
68690;SDS011;55675;49.588;8.640;2023-04-16T02:41:19;7.80;;;6.40;;
68690;SDS011;55675;49.588;8.640;2023-04-16T02:43:45;9.50;;;6.50;;
68690;SDS011;55675;49.588;8.640;2023-04-16T02:46:10;9.23;;;6.53;;
68690;SDS011;55675;49.588;8.640;2023-04-16T02:48:36;9.63;;;6.40;;
68690;SDS011;55675;49.588;8.640;2023-04-16T02:51:02;10.33;;;7.07;;
68690;SDS011;55675;49.588;8.640;2023-04-16T02:53:27;10.07;;;6.70;;
68690;SDS011;55675;49.588;8.640;2023-04-16T02:55:53;8.80;;;6.10;;
68690;SDS011;55675;49.588;8.640;2023-04-16T02:58:20;8.23;;;6.33;;
68690;SDS011;55675;49.588;8.640;2023-04-16T03:00:46;8.50;;;5.90;;
68690;SDS011;55675;49.588;8.640;2023-04-16T03:03:12;8.07;;;5.80;;
68690;SDS011;55675;49.588;8.640;2023-04-16T03:05:38;8.80;;;5.93;;
68690;SDS011;55675;49.588;8.640;2023-04-16T03:08:03;8.80;;;6.70;;
68690;SDS011;55675;49.588;8.640;2023-04-16T03:10:29;8.60;;;6.30;;
68690;SDS011;55675;49.588;8.640;2023-04-16T03:12:55;11.07;;;6.70;;
68690;SDS011;55675;49.588;8.640;2023-04-16T03:15:20;9.93;;;6.67;;
68690;SDS011;55675;49.588;8.640;2023-04-16T03:17:46;9.53;;;6.23;;
68690;SDS011;55675;49.588;8.640;2023-04-16T03:20:11;8.43;;;6.40;;
68690;SDS011;55675;49.588;8.640;2023-04-16T03:22:38;6.60;;;5.27;;
68690;SDS011;55675;49.588;8.640;2023-04-16T03:25:04;7.93;;;6.30;;
68690;SDS011;55675;49.588;8.640;2023-04-16T03:27:32;8.80;;;6.67;;
68690;SDS011;55675;49.588;8.640;2023-04-16T03:29:58;9.13;;;6.00;;
68690;SDS011;55675;49.588;8.640;2023-04-16T03:32:24;8.70;;;7.03;;
68690;SDS011;55675;49.588;8.640;2023-04-16T03:34:49;9.17;;;6.77;;
68690;SDS011;55675;49.588;8.640;2023-04-16T03:37:15;9.73;;;6.53;;
68690;SDS011;55675;49.588;8.640;2023-04-16T03:39:40;8.27;;;6.70;;
68690;SDS011;55675;49.588;8.640;2023-04-16T03:42:06;7.57;;;6.63;;
68690;SDS011;55675;49.588;8.640;2023-04-16T03:44:31;9.80;;;6.70;;
68690;SDS011;55675;49.588;8.640;2023-04-16T03:46:57;9.00;;;6.33;;
68690;SDS011;55675;49.588;8.640;2023-04-16T03:49:23;9.87;;;7.20;;
68690;SDS011;55675;49.588;8.640;2023-04-16T03:51:48;10.47;;;6.83;;
68690;SDS011;55675;49.588;8.640;2023-04-16T03:54:14;7.60;;;6.70;;
68690;SDS011;55675;49.588;8.640;2023-04-16T03:56:40;10.27;;;6.63;;
68690;SDS011;55675;49.588;8.640;2023-04-16T03:59:06;8.53;;;6.13;;
68690;SDS011;55675;49.588;8.640;2023-04-16T04:01:31;9.07;;;6.90;;
68690;SDS011;55675;49.588;8.640;2023-04-16T04:03:57;8.33;;;6.43;;
68690;SDS011;55675;49.588;8.640;2023-04-16T04:06:22;9.17;;;6.77;;
68690;SDS011;55675;49.588;8.640;2023-04-16T04:08:48;8.37;;;6.53;;
68690;SDS011;55675;49.588;8.640;2023-04-16T04:11:13;7.77;;;6.27;;
68690;SDS011;55675;49.588;8.640;2023-04-16T04:13:39;9.07;;;6.10;;
68690;SDS011;55675;49.588;8.640;2023-04-16T04:16:05;10.37;;;6.83;;
68690;SDS011;55675;49.588;8.640;2023-04-16T04:18:30;9.23;;;6.90;;
68690;SDS011;55675;49.588;8.640;2023-04-16T04:20:56;10.23;;;6.83;;
68690;SDS011;55675;49.588;8.640;2023-04-16T04:23:22;8.90;;;6.40;;
68690;SDS011;55675;49.588;8.640;2023-04-16T04:25:47;9.97;;;7.03;;
68690;SDS011;55675;49.588;8.640;2023-04-16T04:28:13;8.07;;;6.80;;
68690;SDS011;55675;49.588;8.640;2023-04-16T04:30:39;7.63;;;6.43;;
68690;SDS011;55675;49.588;8.640;2023-04-16T04:33:05;8.70;;;7.17;;
68690;SDS011;55675;49.588;8.640;2023-04-16T04:35:30;11.90;;;7.27;;
68690;SDS011;55675;49.588;8.640;2023-04-16T04:37:56;10.67;;;7.07;;
68690;SDS011;55675;49.588;8.640;2023-04-16T04:40:22;10.03;;;6.93;;
68690;SDS011;55675;49.588;8.640;2023-04-16T04:42:47;9.23;;;6.67;;
68690;SDS011;55675;49.588;8.640;2023-04-16T04:45:13;8.73;;;6.63;;
68690;SDS011;55675;49.588;8.640;2023-04-16T04:47:39;8.20;;;6.17;;
68690;SDS011;55675;49.588;8.640;2023-04-16T04:50:04;7.93;;;6.33;;
68690;SDS011;55675;49.588;8.640;2023-04-16T04:52:30;10.43;;;6.87;;
68690;SDS011;55675;49.588;8.640;2023-04-16T04:54:56;10.00;;;6.63;;
68690;SDS011;55675;49.588;8.640;2023-04-16T04:57:21;9.20;;;7.07;;
68690;SDS011;55675;49.588;8.640;2023-04-16T04:59:47;9.43;;;6.73;;
68690;SDS011;55675;49.588;8.640;2023-04-16T05:02:12;9.10;;;6.73;;
68690;SDS011;55675;49.588;8.640;2023-04-16T05:04:38;8.40;;;6.47;;
68690;SDS011;55675;49.588;8.640;2023-04-16T05:07:03;10.27;;;6.87;;
68690;SDS011;55675;49.588;8.640;2023-04-16T05:09:30;10.40;;;6.70;;
68690;SDS011;55675;49.588;8.640;2023-04-16T05:11:56;8.10;;;5.97;;
68690;SDS011;55675;49.588;8.640;2023-04-16T05:14:21;9.63;;;6.87;;
68690;SDS011;55675;49.588;8.640;2023-04-16T05:16:47;10.37;;;6.53;;
68690;SDS011;55675;49.588;8.640;2023-04-16T05:19:12;10.53;;;7.00;;
68690;SDS011;55675;49.588;8.640;2023-04-16T05:21:38;10.23;;;6.70;;
68690;SDS011;55675;49.588;8.640;2023-04-16T05:24:03;10.83;;;7.33;;
68690;SDS011;55675;49.588;8.640;2023-04-16T05:26:29;10.03;;;6.97;;
68690;SDS011;55675;49.588;8.640;2023-04-16T05:28:54;9.73;;;6.40;;
68690;SDS011;55675;49.588;8.640;2023-04-16T05:31:20;9.77;;;6.80;;
68690;SDS011;55675;49.588;8.640;2023-04-16T05:33:46;8.67;;;6.70;;
68690;SDS011;55675;49.588;8.640;2023-04-16T05:36:11;9.13;;;6.83;;
68690;SDS011;55675;49.588;8.640;2023-04-16T05:38:37;11.27;;;6.13;;
68690;SDS011;55675;49.588;8.640;2023-04-16T05:41:02;8.27;;;6.43;;
68690;SDS011;55675;49.588;8.640;2023-04-16T05:43:28;9.63;;;7.63;;
68690;SDS011;55675;49.588;8.640;2023-04-16T05:45:53;9.00;;;6.30;;
68690;SDS011;55675;49.588;8.640;2023-04-16T05:48:19;10.40;;;6.97;;
68690;SDS011;55675;49.588;8.640;2023-04-16T05:50:44;9.47;;;6.57;;
68690;SDS011;55675;49.588;8.640;2023-04-16T05:53:10;10.33;;;7.20;;
68690;SDS011;55675;49.588;8.640;2023-04-16T05:55:37;8.57;;;6.30;;
68690;SDS011;55675;49.588;8.640;2023-04-16T05:58:03;8.50;;;6.10;;
68690;SDS011;55675;49.588;8.640;2023-04-16T06:00:29;7.93;;;5.97;;
68690;SDS011;55675;49.588;8.640;2023-04-16T06:02:56;8.27;;;6.80;;
68690;SDS011;55675;49.588;8.640;2023-04-16T06:05:21;8.70;;;6.23;;
68690;SDS011;55675;49.588;8.640;2023-04-16T06:07:47;9.23;;;7.00;;
68690;SDS011;55675;49.588;8.640;2023-04-16T06:10:12;9.87;;;6.93;;
68690;SDS011;55675;49.588;8.640;2023-04-16T06:12:38;8.23;;;6.30;;
68690;SDS011;55675;49.588;8.640;2023-04-16T06:15:04;8.73;;;6.90;;
68690;SDS011;55675;49.588;8.640;2023-04-16T06:17:30;8.57;;;6.50;;
68690;SDS011;55675;49.588;8.640;2023-04-16T06:19:55;11.60;;;7.17;;
68690;SDS011;55675;49.588;8.640;2023-04-16T06:22:21;10.60;;;6.57;;
68690;SDS011;55675;49.588;8.640;2023-04-16T06:24:46;8.83;;;6.40;;
68690;SDS011;55675;49.588;8.640;2023-04-16T06:27:12;8.43;;;6.23;;
68690;SDS011;55675;49.588;8.640;2023-04-16T06:29:37;9.00;;;6.60;;
68690;SDS011;55675;49.588;8.640;2023-04-16T06:32:03;8.90;;;6.70;;
68690;SDS011;55675;49.588;8.640;2023-04-16T06:34:29;8.73;;;6.50;;
68690;SDS011;55675;49.588;8.640;2023-04-16T06:36:55;10.53;;;6.60;;
68690;SDS011;55675;49.588;8.640;2023-04-16T06:39:20;9.77;;;6.20;;
68690;SDS011;55675;49.588;8.640;2023-04-16T06:41:46;9.10;;;6.30;;
68690;SDS011;55675;49.588;8.640;2023-04-16T06:44:12;8.43;;;6.43;;
68690;SDS011;55675;49.588;8.640;2023-04-16T06:46:38;9.53;;;7.00;;
68690;SDS011;55675;49.588;8.640;2023-04-16T06:49:04;8.27;;;6.13;;
68690;SDS011;55675;49.588;8.640;2023-04-16T06:51:29;8.53;;;6.27;;
68690;SDS011;55675;49.588;8.640;2023-04-16T06:53:55;8.43;;;6.17;;
68690;SDS011;55675;49.588;8.640;2023-04-16T06:56:21;9.40;;;6.30;;
68690;SDS011;55675;49.588;8.640;2023-04-16T06:58:46;8.53;;;6.20;;
68690;SDS011;55675;49.588;8.640;2023-04-16T07:01:12;9.47;;;6.17;;
68690;SDS011;55675;49.588;8.640;2023-04-16T07:03:37;8.87;;;6.57;;
68690;SDS011;55675;49.588;8.640;2023-04-16T07:06:03;10.03;;;6.73;;
68690;SDS011;55675;49.588;8.640;2023-04-16T07:08:28;8.53;;;6.73;;
68690;SDS011;55675;49.588;8.640;2023-04-16T07:10:54;10.10;;;6.70;;
68690;SDS011;55675;49.588;8.640;2023-04-16T07:13:20;9.43;;;6.97;;
68690;SDS011;55675;49.588;8.640;2023-04-16T07:15:46;10.20;;;6.73;;
68690;SDS011;55675;49.588;8.640;2023-04-16T07:18:11;10.07;;;6.60;;
68690;SDS011;55675;49.588;8.640;2023-04-16T07:20:37;11.10;;;7.03;;
68690;SDS011;55675;49.588;8.640;2023-04-16T07:23:02;9.87;;;6.77;;
68690;SDS011;55675;49.588;8.640;2023-04-16T07:25:28;11.83;;;7.50;;
68690;SDS011;55675;49.588;8.640;2023-04-16T07:27:54;11.93;;;7.23;;
68690;SDS011;55675;49.588;8.640;2023-04-16T07:30:19;10.80;;;7.13;;
68690;SDS011;55675;49.588;8.640;2023-04-16T07:32:45;13.17;;;7.47;;
68690;SDS011;55675;49.588;8.640;2023-04-16T07:35:10;12.03;;;7.57;;
68690;SDS011;55675;49.588;8.640;2023-04-16T07:37:36;11.87;;;8.23;;
68690;SDS011;55675;49.588;8.640;2023-04-16T07:40:01;12.90;;;8.23;;
68690;SDS011;55675;49.588;8.640;2023-04-16T07:42:28;14.00;;;8.60;;
68690;SDS011;55675;49.588;8.640;2023-04-16T07:44:54;13.70;;;8.73;;
68690;SDS011;55675;49.588;8.640;2023-04-16T07:47:19;14.73;;;8.47;;
68690;SDS011;55675;49.588;8.640;2023-04-16T07:49:47;13.00;;;8.53;;
68690;SDS011;55675;49.588;8.640;2023-04-16T07:52:13;11.30;;;7.90;;
68690;SDS011;55675;49.588;8.640;2023-04-16T07:54:38;14.47;;;9.40;;
68690;SDS011;55675;49.588;8.640;2023-04-16T07:57:04;14.47;;;9.50;;
68690;SDS011;55675;49.588;8.640;2023-04-16T07:59:29;15.17;;;9.23;;
68690;SDS011;55675;49.588;8.640;2023-04-16T08:01:55;16.33;;;9.93;;
68690;SDS011;55675;49.588;8.640;2023-04-16T08:04:21;15.73;;;10.00;;
68690;SDS011;55675;49.588;8.640;2023-04-16T08:06:48;15.30;;;9.40;;
68690;SDS011;55675;49.588;8.640;2023-04-16T08:09:15;15.67;;;10.20;;
68690;SDS011;55675;49.588;8.640;2023-04-16T08:11:40;18.03;;;9.60;;
68690;SDS011;55675;49.588;8.640;2023-04-16T08:14:06;15.97;;;10.10;;
68690;SDS011;55675;49.588;8.640;2023-04-16T08:16:32;14.77;;;9.07;;
68690;SDS011;55675;49.588;8.640;2023-04-16T08:18:57;14.73;;;8.93;;
68690;SDS011;55675;49.588;8.640;2023-04-16T08:21:25;13.87;;;9.30;;
68690;SDS011;55675;49.588;8.640;2023-04-16T08:23:51;16.20;;;9.43;;
68690;SDS011;55675;49.588;8.640;2023-04-16T08:26:17;18.07;;;10.20;;
68690;SDS011;55675;49.588;8.640;2023-04-16T08:28:43;15.33;;;9.50;;
68690;SDS011;55675;49.588;8.640;2023-04-16T08:31:09;17.40;;;9.07;;
68690;SDS011;55675;49.588;8.640;2023-04-16T08:33:35;16.77;;;9.63;;
68690;SDS011;55675;49.588;8.640;2023-04-16T08:36:00;13.87;;;9.20;;
68690;SDS011;55675;49.588;8.640;2023-04-16T08:38:26;14.20;;;9.03;;
68690;SDS011;55675;49.588;8.640;2023-04-16T08:40:51;14.57;;;8.20;;
68690;SDS011;55675;49.588;8.640;2023-04-16T08:43:18;12.73;;;8.63;;
68690;SDS011;55675;49.588;8.640;2023-04-16T08:45:48;13.67;;;8.67;;
68690;SDS011;55675;49.588;8.640;2023-04-16T08:48:17;12.90;;;7.73;;
68690;SDS011;55675;49.588;8.640;2023-04-16T08:50:45;13.53;;;8.77;;
68690;SDS011;55675;49.588;8.640;2023-04-16T08:53:13;14.13;;;8.43;;
68690;SDS011;55675;49.588;8.640;2023-04-16T08:55:47;12.60;;;8.40;;
68690;SDS011;55675;49.588;8.640;2023-04-16T08:58:14;12.60;;;8.37;;
68690;SDS011;55675;49.588;8.640;2023-04-16T09:00:43;10.07;;;7.90;;
68690;SDS011;55675;49.588;8.640;2023-04-16T09:03:10;16.83;;;8.60;;
68690;SDS011;55675;49.588;8.640;2023-04-16T09:05:36;13.00;;;8.43;;
68690;SDS011;55675;49.588;8.640;2023-04-16T09:08:06;12.87;;;7.60;;
68690;SDS011;55675;49.588;8.640;2023-04-16T09:10:32;12.13;;;7.77;;
68690;SDS011;55675;49.588;8.640;2023-04-16T09:12:58;12.83;;;7.40;;
68690;SDS011;55675;49.588;8.640;2023-04-16T09:15:24;10.70;;;7.57;;
68690;SDS011;55675;49.588;8.640;2023-04-16T09:17:50;11.63;;;7.47;;
68690;SDS011;55675;49.588;8.640;2023-04-16T09:20:16;10.97;;;7.03;;
68690;SDS011;55675;49.588;8.640;2023-04-16T09:22:42;11.60;;;8.00;;
68690;SDS011;55675;49.588;8.640;2023-04-16T09:25:08;9.60;;;7.30;;
68690;SDS011;55675;49.588;8.640;2023-04-16T09:27:35;13.67;;;8.33;;
68690;SDS011;55675;49.588;8.640;2023-04-16T09:30:18;13.27;;;8.87;;
68690;SDS011;55675;49.588;8.640;2023-04-16T09:32:47;11.27;;;7.83;;
68690;SDS011;55675;49.588;8.640;2023-04-16T09:35:13;13.00;;;8.67;;
68690;SDS011;55675;49.588;8.640;2023-04-16T09:37:39;13.33;;;9.07;;
68690;SDS011;55675;49.588;8.640;2023-04-16T09:40:05;14.13;;;9.27;;
68690;SDS011;55675;49.588;8.640;2023-04-16T09:42:35;14.97;;;9.47;;
68690;SDS011;55675;49.588;8.640;2023-04-16T09:45:01;14.10;;;8.77;;
68690;SDS011;55675;49.588;8.640;2023-04-16T09:47:43;11.77;;;8.33;;
68690;SDS011;55675;49.588;8.640;2023-04-16T09:50:13;13.13;;;7.60;;
68690;SDS011;55675;49.588;8.640;2023-04-16T09:52:42;11.67;;;7.80;;
68690;SDS011;55675;49.588;8.640;2023-04-16T09:55:09;9.97;;;6.87;;
68690;SDS011;55675;49.588;8.640;2023-04-16T09:57:36;12.27;;;7.40;;
68690;SDS011;55675;49.588;8.640;2023-04-16T10:00:05;11.00;;;7.57;;
68690;SDS011;55675;49.588;8.640;2023-04-16T10:02:37;11.73;;;7.73;;
68690;SDS011;55675;49.588;8.640;2023-04-16T10:05:05;10.33;;;7.07;;
68690;SDS011;55675;49.588;8.640;2023-04-16T10:07:34;11.43;;;7.23;;
68690;SDS011;55675;49.588;8.640;2023-04-16T10:10:01;12.13;;;7.47;;
68690;SDS011;55675;49.588;8.640;2023-04-16T10:12:28;11.23;;;7.67;;
68690;SDS011;55675;49.588;8.640;2023-04-16T10:14:56;10.03;;;7.70;;
68690;SDS011;55675;49.588;8.640;2023-04-16T10:17:22;11.10;;;7.60;;
68690;SDS011;55675;49.588;8.640;2023-04-16T10:19:48;12.10;;;7.57;;
68690;SDS011;55675;49.588;8.640;2023-04-16T10:22:15;11.23;;;7.40;;
68690;SDS011;55675;49.588;8.640;2023-04-16T10:24:40;11.60;;;7.20;;
68690;SDS011;55675;49.588;8.640;2023-04-16T10:27:07;10.87;;;7.60;;
68690;SDS011;55675;49.588;8.640;2023-04-16T10:29:32;11.40;;;7.30;;
68690;SDS011;55675;49.588;8.640;2023-04-16T10:32:00;14.50;;;8.03;;
68690;SDS011;55675;49.588;8.640;2023-04-16T10:34:26;11.77;;;8.17;;
68690;SDS011;55675;49.588;8.640;2023-04-16T10:36:53;12.43;;;8.07;;
68690;SDS011;55675;49.588;8.640;2023-04-16T10:39:19;11.37;;;8.20;;
68690;SDS011;55675;49.588;8.640;2023-04-16T10:41:48;11.73;;;7.17;;
68690;SDS011;55675;49.588;8.640;2023-04-16T10:44:18;10.97;;;7.47;;
68690;SDS011;55675;49.588;8.640;2023-04-16T10:46:45;12.07;;;8.30;;
68690;SDS011;55675;49.588;8.640;2023-04-16T10:49:18;10.43;;;7.67;;
68690;SDS011;55675;49.588;8.640;2023-04-16T10:52:00;11.37;;;7.60;;
68690;SDS011;55675;49.588;8.640;2023-04-16T10:54:31;10.20;;;7.37;;
68690;SDS011;55675;49.588;8.640;2023-04-16T10:57:03;11.77;;;8.40;;
68690;SDS011;55675;49.588;8.640;2023-04-16T10:59:31;13.10;;;7.93;;
68690;SDS011;55675;49.588;8.640;2023-04-16T11:01:59;11.87;;;8.83;;
68690;SDS011;55675;49.588;8.640;2023-04-16T11:04:39;11.63;;;7.43;;
68690;SDS011;55675;49.588;8.640;2023-04-16T11:09:43;11.23;;;8.67;;
68690;SDS011;55675;49.588;8.640;2023-04-16T11:12:32;11.20;;;8.43;;
68690;SDS011;55675;49.588;8.640;2023-04-16T11:17:27;10.17;;;7.87;;
68690;SDS011;55675;49.588;8.640;2023-04-16T11:20:16;11.27;;;7.83;;
68690;SDS011;55675;49.588;8.640;2023-04-16T11:22:42;10.37;;;6.73;;
68690;SDS011;55675;49.588;8.640;2023-04-16T11:25:09;10.60;;;7.43;;
68690;SDS011;55675;49.588;8.640;2023-04-16T11:27:35;9.87;;;7.27;;
68690;SDS011;55675;49.588;8.640;2023-04-16T11:30:02;9.47;;;7.30;;
68690;SDS011;55675;49.588;8.640;2023-04-16T11:32:30;11.40;;;7.83;;
68690;SDS011;55675;49.588;8.640;2023-04-16T11:34:57;11.43;;;8.23;;
68690;SDS011;55675;49.588;8.640;2023-04-16T11:37:31;10.83;;;7.93;;
68690;SDS011;55675;49.588;8.640;2023-04-16T11:39:58;11.47;;;8.70;;
68690;SDS011;55675;49.588;8.640;2023-04-16T11:42:23;13.53;;;8.83;;
68690;SDS011;55675;49.588;8.640;2023-04-16T11:44:51;9.93;;;7.73;;
68690;SDS011;55675;49.588;8.640;2023-04-16T11:47:18;10.53;;;8.13;;
68690;SDS011;55675;49.588;8.640;2023-04-16T11:49:43;10.90;;;7.90;;
68690;SDS011;55675;49.588;8.640;2023-04-16T11:52:09;11.50;;;9.00;;
68690;SDS011;55675;49.588;8.640;2023-04-16T11:54:35;9.97;;;7.77;;
68690;SDS011;55675;49.588;8.640;2023-04-16T11:57:01;12.83;;;8.00;;
68690;SDS011;55675;49.588;8.640;2023-04-16T11:59:30;11.47;;;8.53;;
68690;SDS011;55675;49.588;8.640;2023-04-16T12:01:55;10.50;;;8.57;;
68690;SDS011;55675;49.588;8.640;2023-04-16T12:04:22;12.67;;;9.27;;
68690;SDS011;55675;49.588;8.640;2023-04-16T12:07:07;11.13;;;8.10;;
68690;SDS011;55675;49.588;8.640;2023-04-16T12:09:37;11.10;;;8.30;;
68690;SDS011;55675;49.588;8.640;2023-04-16T12:12:26;13.03;;;8.77;;
68690;SDS011;55675;49.588;8.640;2023-04-16T12:14:54;10.77;;;8.90;;
68690;SDS011;55675;49.588;8.640;2023-04-16T12:17:21;11.63;;;9.00;;
68690;SDS011;55675;49.588;8.640;2023-04-16T12:19:48;12.77;;;9.27;;
68690;SDS011;55675;49.588;8.640;2023-04-16T12:22:14;13.37;;;9.57;;
68690;SDS011;55675;49.588;8.640;2023-04-16T12:24:39;12.30;;;9.83;;
68690;SDS011;55675;49.588;8.640;2023-04-16T12:27:05;12.50;;;9.37;;
68690;SDS011;55675;49.588;8.640;2023-04-16T12:29:30;12.10;;;8.67;;
68690;SDS011;55675;49.588;8.640;2023-04-16T12:31:56;12.83;;;8.67;;
68690;SDS011;55675;49.588;8.640;2023-04-16T12:34:21;12.97;;;9.37;;
68690;SDS011;55675;49.588;8.640;2023-04-16T12:36:48;13.60;;;9.70;;
68690;SDS011;55675;49.588;8.640;2023-04-16T12:39:28;13.53;;;9.40;;
68690;SDS011;55675;49.588;8.640;2023-04-16T12:41:54;12.80;;;9.40;;
68690;SDS011;55675;49.588;8.640;2023-04-16T12:44:19;13.27;;;8.97;;
68690;SDS011;55675;49.588;8.640;2023-04-16T12:46:45;13.10;;;9.87;;
68690;SDS011;55675;49.588;8.640;2023-04-16T12:49:10;14.63;;;9.87;;
68690;SDS011;55675;49.588;8.640;2023-04-16T12:51:36;14.73;;;10.13;;
68690;SDS011;55675;49.588;8.640;2023-04-16T12:54:03;13.93;;;10.33;;
68690;SDS011;55675;49.588;8.640;2023-04-16T12:56:31;14.90;;;9.77;;
68690;SDS011;55675;49.588;8.640;2023-04-16T12:58:57;13.50;;;9.97;;
68690;SDS011;55675;49.588;8.640;2023-04-16T13:01:23;12.73;;;9.53;;
68690;SDS011;55675;49.588;8.640;2023-04-16T13:03:49;15.87;;;10.67;;
68690;SDS011;55675;49.588;8.640;2023-04-16T13:06:15;15.57;;;10.33;;
68690;SDS011;55675;49.588;8.640;2023-04-16T13:08:42;15.47;;;10.53;;
68690;SDS011;55675;49.588;8.640;2023-04-16T13:11:08;15.30;;;10.30;;
68690;SDS011;55675;49.588;8.640;2023-04-16T13:13:34;14.00;;;10.07;;
68690;SDS011;55675;49.588;8.640;2023-04-16T13:16:00;14.40;;;10.27;;
68690;SDS011;55675;49.588;8.640;2023-04-16T13:18:28;15.17;;;10.37;;
68690;SDS011;55675;49.588;8.640;2023-04-16T13:20:53;14.90;;;10.37;;
68690;SDS011;55675;49.588;8.640;2023-04-16T13:23:19;14.43;;;9.70;;
68690;SDS011;55675;49.588;8.640;2023-04-16T13:25:45;13.50;;;10.53;;
68690;SDS011;55675;49.588;8.640;2023-04-16T13:28:11;16.33;;;10.97;;
68690;SDS011;55675;49.588;8.640;2023-04-16T13:30:36;17.40;;;10.93;;
68690;SDS011;55675;49.588;8.640;2023-04-16T13:33:02;17.20;;;11.37;;
68690;SDS011;55675;49.588;8.640;2023-04-16T13:35:28;14.13;;;10.33;;
68690;SDS011;55675;49.588;8.640;2023-04-16T13:37:54;15.70;;;11.07;;
68690;SDS011;55675;49.588;8.640;2023-04-16T13:40:20;15.27;;;10.37;;
68690;SDS011;55675;49.588;8.640;2023-04-16T13:42:46;15.23;;;10.80;;
68690;SDS011;55675;49.588;8.640;2023-04-16T13:45:11;14.97;;;10.40;;
68690;SDS011;55675;49.588;8.640;2023-04-16T13:47:39;15.07;;;10.83;;
68690;SDS011;55675;49.588;8.640;2023-04-16T13:50:06;18.13;;;10.93;;
68690;SDS011;55675;49.588;8.640;2023-04-16T13:52:32;16.53;;;10.60;;
68690;SDS011;55675;49.588;8.640;2023-04-16T13:54:57;14.13;;;10.80;;
68690;SDS011;55675;49.588;8.640;2023-04-16T13:57:23;16.50;;;11.60;;
68690;SDS011;55675;49.588;8.640;2023-04-16T13:59:49;15.47;;;10.80;;
68690;SDS011;55675;49.588;8.640;2023-04-16T14:02:14;18.97;;;12.27;;
68690;SDS011;55675;49.588;8.640;2023-04-16T14:04:40;17.13;;;11.53;;
68690;SDS011;55675;49.588;8.640;2023-04-16T14:07:06;17.17;;;12.20;;
68690;SDS011;55675;49.588;8.640;2023-04-16T14:09:31;18.43;;;11.90;;
68690;SDS011;55675;49.588;8.640;2023-04-16T14:11:57;17.10;;;11.63;;
68690;SDS011;55675;49.588;8.640;2023-04-16T14:14:22;18.03;;;11.30;;
68690;SDS011;55675;49.588;8.640;2023-04-16T14:16:48;19.03;;;12.33;;
68690;SDS011;55675;49.588;8.640;2023-04-16T14:19:14;18.63;;;11.60;;
68690;SDS011;55675;49.588;8.640;2023-04-16T14:21:40;16.27;;;11.47;;
68690;SDS011;55675;49.588;8.640;2023-04-16T14:24:05;27.70;;;15.73;;
68690;SDS011;55675;49.588;8.640;2023-04-16T14:26:33;18.63;;;12.17;;
68690;SDS011;55675;49.588;8.640;2023-04-16T14:28:58;31.60;;;18.20;;
68690;SDS011;55675;49.588;8.640;2023-04-16T14:31:24;18.67;;;13.30;;
68690;SDS011;55675;49.588;8.640;2023-04-16T14:33:51;21.17;;;14.13;;
68690;SDS011;55675;49.588;8.640;2023-04-16T14:36:16;20.70;;;12.50;;
68690;SDS011;55675;49.588;8.640;2023-04-16T14:38:42;17.80;;;12.17;;